createdAt,value
2016-07-31T00:00:17.892Z,952.10
2016-07-31T00:01:18.121Z,952.14
2016-07-31T00:02:22.637Z,952.15
2016-07-31T00:03:28.107Z,952.16
2016-07-31T00:04:28.595Z,952.15
2016-07-31T00:05:17.814Z,952.16
2016-07-31T00:06:23.190Z,952.15
2016-07-31T00:07:19.119Z,952.13
2016-07-31T00:08:17.547Z,952.21
2016-07-31T00:09:18.514Z,952.17
2016-07-31T00:10:19.467Z,952.19
2016-07-31T00:11:33.236Z,952.17
2016-07-31T00:12:35.879Z,952.15
2016-07-31T00:13:18.068Z,952.24
2016-07-31T00:14:23.467Z,952.22
2016-07-31T00:15:19.893Z,952.21
2016-07-31T00:16:30.319Z,952.18
2016-07-31T00:17:22.727Z,952.16
2016-07-31T00:18:23.744Z,952.17
2016-07-31T00:19:34.207Z,952.15
2016-07-31T00:20:35.114Z,952.14
2016-07-31T00:21:27.551Z,952.09
2016-07-31T00:22:14.187Z,952.10
2016-07-31T00:23:29.991Z,952.07
2016-07-31T00:24:27.742Z,952.06
2016-07-31T00:25:20.658Z,952.02
2016-07-31T00:26:20.531Z,952.05
2016-07-31T00:27:32.080Z,952.06
2016-07-31T00:28:23.165Z,952.04
2016-07-31T00:29:23.518Z,952.10
2016-07-31T00:30:22.999Z,952.12
2016-07-31T00:31:19.830Z,952.13
2016-07-31T00:32:20.559Z,952.16
2016-07-31T00:33:23.529Z,952.14
2016-07-31T00:34:24.261Z,952.17
2016-07-31T00:35:18.270Z,952.18
2016-07-31T00:36:17.811Z,952.18
2016-07-31T00:37:31.023Z,952.21
2016-07-31T00:38:18.226Z,952.17
2016-07-31T00:39:17.210Z,952.15
2016-07-31T00:40:19.130Z,952.14
2016-07-31T00:41:28.433Z,952.11
2016-07-31T00:42:19.916Z,952.19
2016-07-31T00:43:25.192Z,952.12
2016-07-31T00:44:36.424Z,952.10
2016-07-31T00:46:30.117Z,952.04
2016-07-31T00:47:18.976Z,951.99
2016-07-31T00:48:27.474Z,951.94
2016-07-31T00:49:18.394Z,951.96
2016-07-31T00:50:24.274Z,951.94
2016-07-31T00:51:19.003Z,951.94
2016-07-31T00:52:17.589Z,951.97
2016-07-31T00:53:22.183Z,952.00
2016-07-31T00:54:39.769Z,952.02
2016-07-31T00:55:24.323Z,952.00
2016-07-31T00:56:33.363Z,951.99
2016-07-31T00:57:30.398Z,951.99
2016-07-31T00:58:29.606Z,952.02
2016-07-31T00:59:24.557Z,951.99
2016-07-31T01:00:29.536Z,951.95
2016-07-31T01:01:31.054Z,951.89
2016-07-31T01:02:32.865Z,951.86
2016-07-31T01:03:30.721Z,951.83
2016-07-31T01:04:22.315Z,951.88
2016-07-31T01:05:26.151Z,951.85
2016-07-31T01:06:23.996Z,951.94
2016-07-31T01:07:18.037Z,951.91
2016-07-31T01:08:28.667Z,951.95
2016-07-31T01:09:33.659Z,951.97
2016-07-31T01:10:32.804Z,951.95
2016-07-31T01:11:33.154Z,951.97
2016-07-31T01:12:18.448Z,951.96
2016-07-31T01:13:18.166Z,951.91
2016-07-31T01:14:26.621Z,951.90
2016-07-31T01:15:20.752Z,951.91
2016-07-31T01:16:28.166Z,951.92
2016-07-31T01:17:18.676Z,951.93
2016-07-31T01:18:26.980Z,951.97
2016-07-31T01:19:28.477Z,952.02
2016-07-31T01:20:26.352Z,952.02
2016-07-31T01:21:17.721Z,952.04
2016-07-31T01:22:31.146Z,952.00
2016-07-31T01:23:12.652Z,952.03
2016-07-31T01:24:22.577Z,952.02
2016-07-31T01:25:23.950Z,952.08
2016-07-31T01:26:23.473Z,952.06
2016-07-31T01:27:19.698Z,952.03
2016-07-31T01:28:24.713Z,952.04
2016-07-31T01:30:23.736Z,952.06
2016-07-31T01:31:20.444Z,952.04
2016-07-31T01:32:19.314Z,952.08
2016-07-31T01:33:23.538Z,952.05
2016-07-31T01:34:29.525Z,952.05
2016-07-31T01:35:29.267Z,951.99
2016-07-31T01:36:31.059Z,951.98
2016-07-31T01:37:20.716Z,951.91
2016-07-31T01:38:24.762Z,951.87
2016-07-31T01:39:32.855Z,951.82
2016-07-31T01:40:26.828Z,951.82
2016-07-31T01:41:30.663Z,951.78
2016-07-31T01:42:33.982Z,951.76
2016-07-31T01:43:35.056Z,951.72
2016-07-31T01:44:20.949Z,951.68
2016-07-31T01:45:23.823Z,951.68
2016-07-31T01:46:25.594Z,951.61
2016-07-31T01:47:26.283Z,951.62
2016-07-31T01:48:35.706Z,951.60
2016-07-31T01:49:20.140Z,951.66
2016-07-31T01:50:35.910Z,951.65
2016-07-31T01:51:17.703Z,951.65
2016-07-31T01:52:33.218Z,951.69
2016-07-31T01:53:24.083Z,951.67
2016-07-31T01:54:24.548Z,951.65
2016-07-31T01:55:27.540Z,951.69
2016-07-31T01:56:22.562Z,951.63
2016-07-31T01:57:22.869Z,951.61
2016-07-31T01:58:26.981Z,951.58
2016-07-31T01:59:21.326Z,951.59
2016-07-31T02:00:35.710Z,951.54
2016-07-31T02:01:21.238Z,951.55
2016-07-31T02:02:29.951Z,951.51
2016-07-31T02:03:24.199Z,951.58
2016-07-31T02:04:21.001Z,951.59
2016-07-31T02:05:23.661Z,951.58
2016-07-31T02:06:28.720Z,951.58
2016-07-31T02:07:18.583Z,951.64
2016-07-31T02:08:25.642Z,951.70
2016-07-31T02:09:20.633Z,951.74
2016-07-31T02:10:26.764Z,951.77
2016-07-31T02:11:19.248Z,951.76
2016-07-31T02:12:26.989Z,951.79
2016-07-31T02:13:27.589Z,951.78
2016-07-31T02:14:23.519Z,951.77
2016-07-31T02:15:26.619Z,951.81
2016-07-31T02:16:18.578Z,951.81
2016-07-31T02:17:27.309Z,951.80
2016-07-31T02:18:23.709Z,951.80
2016-07-31T02:19:19.673Z,951.79
2016-07-31T02:20:29.317Z,951.72
2016-07-31T02:21:27.647Z,951.69
2016-07-31T02:22:18.295Z,951.71
2016-07-31T02:23:27.423Z,951.73
2016-07-31T02:25:28.606Z,951.71
2016-07-31T02:26:18.267Z,951.74
2016-07-31T02:27:24.271Z,951.69
2016-07-31T02:28:34.103Z,951.69
2016-07-31T02:30:36.508Z,951.69
2016-07-31T02:31:19.649Z,951.67
2016-07-31T02:32:18.937Z,951.66
2016-07-31T02:33:22.454Z,951.69
2016-07-31T02:34:22.183Z,951.63
2016-07-31T02:35:24.890Z,951.62
2016-07-31T02:36:25.071Z,951.65
2016-07-31T02:37:19.602Z,951.61
2016-07-31T02:38:23.049Z,951.63
2016-07-31T02:40:26.607Z,951.61
2016-07-31T02:41:24.392Z,951.60
2016-07-31T02:42:18.542Z,951.60
2016-07-31T02:45:25.437Z,951.61
2016-07-31T02:46:24.663Z,951.57
2016-07-31T02:47:34.354Z,951.58
2016-07-31T02:48:27.028Z,951.56
2016-07-31T02:49:23.024Z,951.58
2016-07-31T02:50:32.380Z,951.59
2016-07-31T02:51:23.593Z,951.61
2016-07-31T02:52:22.522Z,951.62
2016-07-31T02:53:27.794Z,951.61
2016-07-31T02:54:18.272Z,951.67
2016-07-31T02:55:28.429Z,951.64
2016-07-31T02:57:29.493Z,951.58
2016-07-31T02:58:30.167Z,951.53
2016-07-31T02:59:18.369Z,951.48
2016-07-31T03:00:33.010Z,951.49
2016-07-31T03:01:28.991Z,951.47
2016-07-31T03:02:28.087Z,951.44
2016-07-31T03:03:23.199Z,951.48
2016-07-31T03:04:25.311Z,951.43
2016-07-31T03:05:18.600Z,951.47
2016-07-31T03:06:37.079Z,951.46
2016-07-31T03:07:26.105Z,951.52
2016-07-31T03:08:39.708Z,951.48
2016-07-31T03:09:22.345Z,951.44
2016-07-31T03:10:24.417Z,951.40
2016-07-31T03:11:32.318Z,951.40
2016-07-31T03:12:26.628Z,951.39
2016-07-31T03:14:19.741Z,951.37
2016-07-31T03:15:18.240Z,951.33
2016-07-31T03:16:27.652Z,951.31
2016-07-31T03:17:25.770Z,951.27
2016-07-31T03:18:29.475Z,951.27
2016-07-31T03:19:23.178Z,951.28
2016-07-31T03:20:19.356Z,951.28
2016-07-31T03:21:19.558Z,951.30
2016-07-31T03:22:23.295Z,951.34
2016-07-31T03:23:26.641Z,951.31
2016-07-31T03:24:21.926Z,951.33
2016-07-31T03:26:36.903Z,951.31
2016-07-31T03:29:34.026Z,951.33
2016-07-31T03:30:18.663Z,951.33
2016-07-31T03:31:25.380Z,951.30
2016-07-31T03:32:34.033Z,951.24
2016-07-31T03:33:27.075Z,951.23
2016-07-31T03:34:33.140Z,951.21
2016-07-31T03:35:23.126Z,951.16
2016-07-31T03:36:22.548Z,951.17
2016-07-31T03:37:26.977Z,951.17
2016-07-31T03:38:27.616Z,951.18
2016-07-31T03:39:24.460Z,951.21
2016-07-31T03:40:33.880Z,951.16
2016-07-31T03:41:17.612Z,951.19
2016-07-31T03:42:26.829Z,951.19
2016-07-31T03:43:18.776Z,951.16
2016-07-31T03:44:25.815Z,951.15
2016-07-31T03:45:25.563Z,951.11
2016-07-31T03:46:26.866Z,951.14
2016-07-31T03:47:24.192Z,951.16
2016-07-31T03:48:25.264Z,951.16
2016-07-31T03:49:20.505Z,951.14
2016-07-31T03:50:24.016Z,951.12
2016-07-31T03:51:18.008Z,951.15
2016-07-31T03:52:34.251Z,951.14
2016-07-31T03:53:42.445Z,951.17
2016-07-31T03:54:21.283Z,951.21
2016-07-31T03:55:20.221Z,951.24
2016-07-31T03:56:36.541Z,951.25
2016-07-31T03:57:26.677Z,951.17
2016-07-31T03:58:18.704Z,951.23
2016-07-31T03:59:22.564Z,951.19
2016-07-31T04:00:22.862Z,951.19
2016-07-31T04:01:22.723Z,951.20
2016-07-31T04:02:23.060Z,951.24
2016-07-31T04:03:28.101Z,951.24
2016-07-31T04:04:22.735Z,951.27
2016-07-31T04:05:33.860Z,951.27
2016-07-31T04:06:23.202Z,951.31
2016-07-31T04:07:18.206Z,951.27
2016-07-31T04:08:26.504Z,951.26
2016-07-31T04:09:29.794Z,951.28
2016-07-31T04:10:22.968Z,951.22
2016-07-31T04:11:25.738Z,951.25
2016-07-31T04:12:27.705Z,951.26
2016-07-31T04:13:33.391Z,951.28
2016-07-31T04:14:23.333Z,951.28
2016-07-31T04:15:22.972Z,951.31
2016-07-31T04:16:23.601Z,951.28
2016-07-31T04:17:23.020Z,951.38
2016-07-31T04:18:25.191Z,951.33
2016-07-31T04:19:23.493Z,951.33
2016-07-31T04:20:23.717Z,951.36
2016-07-31T04:21:19.717Z,951.33
2016-07-31T04:22:34.889Z,951.35
2016-07-31T04:23:21.603Z,951.37
2016-07-31T04:24:23.465Z,951.35
2016-07-31T04:25:29.692Z,951.37
2016-07-31T04:26:29.843Z,951.35
2016-07-31T04:27:27.741Z,951.35
2016-07-31T04:28:22.255Z,951.37
2016-07-31T04:29:32.660Z,951.36
2016-07-31T04:30:24.332Z,951.32
2016-07-31T04:31:22.097Z,951.34
2016-07-31T04:32:18.067Z,951.31
2016-07-31T04:33:24.589Z,951.32
2016-07-31T04:34:24.178Z,951.36
2016-07-31T04:35:22.902Z,951.38
2016-07-31T04:36:21.633Z,951.32
2016-07-31T04:37:31.486Z,951.30
2016-07-31T04:38:33.591Z,951.37
2016-07-31T04:39:25.057Z,951.40
2016-07-31T04:40:19.082Z,951.42
2016-07-31T04:41:23.025Z,951.43
2016-07-31T04:42:22.930Z,951.43
2016-07-31T04:43:26.501Z,951.42
2016-07-31T04:44:28.013Z,951.37
2016-07-31T04:45:40.529Z,951.34
2016-07-31T04:46:27.120Z,951.35
2016-07-31T04:47:27.754Z,951.34
2016-07-31T04:48:22.574Z,951.30
2016-07-31T04:49:18.035Z,951.33
2016-07-31T04:50:22.835Z,951.28
2016-07-31T04:51:29.366Z,951.28
2016-07-31T04:52:27.529Z,951.32
2016-07-31T04:53:26.529Z,951.33
2016-07-31T04:54:27.978Z,951.33
2016-07-31T04:55:26.637Z,951.37
2016-07-31T04:56:40.013Z,951.44
2016-07-31T04:57:25.771Z,951.56
2016-07-31T04:58:27.826Z,951.65
2016-07-31T04:59:23.298Z,951.71
2016-07-31T05:00:27.446Z,951.53
2016-07-31T05:02:15.445Z,951.61
2016-07-31T05:03:18.533Z,951.53
2016-07-31T05:04:25.565Z,951.47
2016-07-31T05:05:25.026Z,951.49
2016-07-31T05:06:25.136Z,951.47
2016-07-31T05:07:33.702Z,951.47
2016-07-31T05:08:18.430Z,951.45
2016-07-31T05:09:24.137Z,951.39
2016-07-31T05:10:25.368Z,951.42
2016-07-31T05:11:27.475Z,951.44
2016-07-31T05:12:17.485Z,951.43
2016-07-31T05:14:21.569Z,951.43
2016-07-31T05:15:37.363Z,951.46
2016-07-31T05:16:38.230Z,951.46
2016-07-31T05:17:22.521Z,951.47
2016-07-31T05:18:23.436Z,951.45
2016-07-31T05:19:23.544Z,951.49
2016-07-31T05:20:20.251Z,951.51
2016-07-31T05:21:26.146Z,951.55
2016-07-31T05:22:19.764Z,951.55
2016-07-31T05:23:27.726Z,951.53
2016-07-31T05:24:22.914Z,951.60
2016-07-31T05:25:32.478Z,951.61
2016-07-31T05:26:28.732Z,951.65
2016-07-31T05:27:19.324Z,951.66
2016-07-31T05:28:22.849Z,951.68
2016-07-31T05:30:28.531Z,951.70
2016-07-31T05:31:33.802Z,951.67
2016-07-31T05:32:24.316Z,951.65
2016-07-31T05:33:33.312Z,951.65
2016-07-31T05:34:21.757Z,951.60
2016-07-31T05:35:23.834Z,951.64
2016-07-31T05:36:26.833Z,951.65
2016-07-31T05:37:21.144Z,951.64
2016-07-31T05:38:18.501Z,951.68
2016-07-31T05:39:23.593Z,951.67
2016-07-31T05:40:23.538Z,951.71
2016-07-31T05:41:30.175Z,951.69
2016-07-31T05:42:17.981Z,951.73
2016-07-31T05:43:23.674Z,951.72
2016-07-31T05:45:23.019Z,951.68
2016-07-31T05:46:19.911Z,951.71
2016-07-31T05:47:28.524Z,951.73
2016-07-31T05:48:27.195Z,951.72
2016-07-31T05:49:21.523Z,951.69
2016-07-31T05:50:17.445Z,951.68
2016-07-31T05:53:29.308Z,951.58
2016-07-31T05:54:22.982Z,951.57
2016-07-31T05:55:26.216Z,951.56
2016-07-31T05:56:19.574Z,951.57
2016-07-31T05:59:27.640Z,951.62
2016-07-31T06:00:22.372Z,951.65
2016-07-31T06:01:33.023Z,951.64
2016-07-31T06:02:37.487Z,951.65
2016-07-31T06:03:24.812Z,951.66
2016-07-31T06:04:27.118Z,951.66
2016-07-31T06:05:17.837Z,951.64
2016-07-31T06:06:18.368Z,951.66
2016-07-31T06:07:18.242Z,951.70
2016-07-31T06:08:18.370Z,951.67
2016-07-31T06:09:35.929Z,951.70
2016-07-31T06:10:26.737Z,951.75
2016-07-31T06:11:28.692Z,951.71
2016-07-31T06:12:29.629Z,951.71
2016-07-31T06:13:23.665Z,951.75
2016-07-31T06:14:28.917Z,951.72
2016-07-31T06:15:23.304Z,951.70
2016-07-31T06:16:27.927Z,951.70
2016-07-31T06:17:27.580Z,951.68
2016-07-31T06:18:22.305Z,951.67
2016-07-31T06:19:23.538Z,951.69
2016-07-31T06:20:17.959Z,951.68
2016-07-31T06:21:34.891Z,951.61
2016-07-31T06:22:22.508Z,951.61
2016-07-31T06:23:18.045Z,951.66
2016-07-31T06:24:30.530Z,951.68
2016-07-31T06:25:25.941Z,951.71
2016-07-31T06:26:17.841Z,951.72
2016-07-31T06:27:32.974Z,951.73
2016-07-31T06:28:44.601Z,951.78
2016-07-31T06:29:35.646Z,951.82
2016-07-31T06:30:18.892Z,951.82
2016-07-31T06:31:19.895Z,951.83
2016-07-31T06:32:30.747Z,951.84
2016-07-31T06:33:36.371Z,951.88
2016-07-31T06:34:18.911Z,951.86
2016-07-31T06:35:20.577Z,951.83
2016-07-31T06:36:31.290Z,951.83
2016-07-31T06:37:30.985Z,951.89
2016-07-31T06:38:26.524Z,951.92
2016-07-31T06:39:25.476Z,951.90
2016-07-31T06:40:33.303Z,951.92
2016-07-31T06:41:26.479Z,951.92
2016-07-31T06:42:34.344Z,951.94
2016-07-31T06:43:20.342Z,951.96
2016-07-31T06:45:23.519Z,952.01
2016-07-31T06:46:34.051Z,952.05
2016-07-31T06:47:27.136Z,952.06
2016-07-31T06:48:27.849Z,952.02
2016-07-31T06:49:24.950Z,952.06
2016-07-31T06:50:22.323Z,952.09
2016-07-31T06:51:19.420Z,952.09
2016-07-31T06:52:21.945Z,952.06
2016-07-31T06:53:17.843Z,952.06
2016-07-31T06:54:28.058Z,952.04
2016-07-31T06:56:19.030Z,952.05
2016-07-31T06:57:17.926Z,952.08
2016-07-31T06:58:20.983Z,952.08
2016-07-31T06:59:35.956Z,952.10
2016-07-31T07:00:18.079Z,952.11
2016-07-31T07:01:22.908Z,952.13
2016-07-31T07:02:34.418Z,952.18
2016-07-31T07:03:29.910Z,952.20
2016-07-31T07:04:19.396Z,952.29
2016-07-31T07:05:28.447Z,952.31
2016-07-31T07:06:21.354Z,952.21
2016-07-31T07:07:32.482Z,952.25
2016-07-31T07:08:45.010Z,952.33
2016-07-31T07:09:26.527Z,952.35
2016-07-31T07:10:20.065Z,952.36
2016-07-31T07:11:24.277Z,952.40
2016-07-31T07:12:17.862Z,952.42
2016-07-31T07:13:28.911Z,952.42
2016-07-31T07:14:18.331Z,952.41
2016-07-31T07:15:32.173Z,952.47
2016-07-31T07:16:18.293Z,952.48
2016-07-31T07:17:22.016Z,952.54
2016-07-31T07:18:26.160Z,952.59
2016-07-31T07:19:47.723Z,952.61
2016-07-31T07:20:21.637Z,952.58
2016-07-31T07:21:27.437Z,952.61
2016-07-31T07:22:18.029Z,952.70
2016-07-31T07:23:19.591Z,952.67
2016-07-31T07:24:23.164Z,952.71
2016-07-31T07:25:35.494Z,952.77
2016-07-31T07:26:20.670Z,952.85
2016-07-31T07:27:19.421Z,952.89
2016-07-31T07:28:20.230Z,952.92
2016-07-31T07:29:24.082Z,952.96
2016-07-31T07:30:20.340Z,952.99
2016-07-31T07:31:25.694Z,953.07
2016-07-31T07:32:26.583Z,953.05
2016-07-31T07:33:36.621Z,953.00
2016-07-31T07:34:26.508Z,953.02
2016-07-31T07:35:23.408Z,953.01
2016-07-31T07:36:18.448Z,953.01
2016-07-31T07:37:28.346Z,953.00
2016-07-31T07:38:25.611Z,953.00
2016-07-31T07:39:24.737Z,953.03
2016-07-31T07:40:24.784Z,953.05
2016-07-31T07:41:26.917Z,953.08
2016-07-31T07:42:31.755Z,953.08
2016-07-31T07:43:19.557Z,953.10
2016-07-31T07:44:19.284Z,953.08
2016-07-31T07:45:19.566Z,953.15
2016-07-31T07:46:24.430Z,953.17
2016-07-31T07:47:21.297Z,953.19
2016-07-31T07:48:25.969Z,953.29
2016-07-31T07:49:29.674Z,953.24
2016-07-31T07:50:17.056Z,953.23
2016-07-31T07:51:20.907Z,953.24
2016-07-31T07:52:17.234Z,953.30
2016-07-31T07:53:17.336Z,953.31
2016-07-31T07:54:23.316Z,953.30
2016-07-31T07:55:26.501Z,953.32
2016-07-31T07:56:28.216Z,953.31
2016-07-31T07:57:20.270Z,953.38
2016-07-31T07:58:32.409Z,953.36
2016-07-31T08:00:24.401Z,953.39
2016-07-31T08:01:28.081Z,953.37
2016-07-31T08:02:33.257Z,953.39
2016-07-31T08:03:38.444Z,953.40
2016-07-31T08:04:26.959Z,953.47
2016-07-31T08:05:25.072Z,953.48
2016-07-31T08:06:20.118Z,953.52
2016-07-31T08:07:42.183Z,953.58
2016-07-31T08:08:30.235Z,953.63
2016-07-31T08:09:29.670Z,953.60
2016-07-31T08:10:30.731Z,953.63
2016-07-31T08:11:33.513Z,953.64
2016-07-31T08:14:20.497Z,953.53
2016-07-31T08:15:26.270Z,953.59
2016-07-31T08:16:20.463Z,953.54
2016-07-31T08:17:28.689Z,953.57
2016-07-31T08:19:29.019Z,953.60
2016-07-31T08:20:21.590Z,953.58
2016-07-31T08:21:18.796Z,953.64
2016-07-31T08:22:28.007Z,953.74
2016-07-31T08:24:21.185Z,953.75
2016-07-31T08:25:38.187Z,953.80
2016-07-31T08:26:34.533Z,953.84
2016-07-31T08:27:26.602Z,953.81
2016-07-31T08:28:18.061Z,953.85
2016-07-31T08:29:20.606Z,953.91
2016-07-31T08:30:19.306Z,953.89
2016-07-31T08:31:26.757Z,953.92
2016-07-31T08:32:17.673Z,953.92
2016-07-31T08:33:28.100Z,953.86
2016-07-31T08:34:26.556Z,953.86
2016-07-31T08:37:24.425Z,953.73
2016-07-31T08:38:20.356Z,953.70
2016-07-31T08:40:24.461Z,953.79
2016-07-31T08:41:32.664Z,953.83
2016-07-31T08:42:27.416Z,953.86
2016-07-31T08:43:18.973Z,953.87
2016-07-31T08:45:28.395Z,953.94
2016-07-31T08:46:23.083Z,953.92
2016-07-31T08:47:17.963Z,953.93
2016-07-31T08:48:26.991Z,953.93
2016-07-31T08:49:18.162Z,953.92
2016-07-31T08:50:19.090Z,953.96
2016-07-31T08:52:15.166Z,953.93
2016-07-31T08:53:26.153Z,953.92
2016-07-31T08:54:25.285Z,953.90
2016-07-31T08:55:20.801Z,953.87
2016-07-31T08:57:34.498Z,953.87
2016-07-31T08:58:34.399Z,953.86
2016-07-31T08:59:25.439Z,953.86
2016-07-31T09:00:31.899Z,953.87
2016-07-31T09:01:24.434Z,953.81
2016-07-31T09:02:38.958Z,953.77
2016-07-31T09:03:25.987Z,953.78
2016-07-31T09:04:23.147Z,953.73
2016-07-31T09:05:38.989Z,953.72
2016-07-31T09:06:27.950Z,953.72
2016-07-31T09:08:18.643Z,953.69
2016-07-31T09:09:34.343Z,953.74
2016-07-31T09:10:34.016Z,953.71
2016-07-31T09:11:31.321Z,953.75
2016-07-31T09:12:33.438Z,953.74
2016-07-31T09:14:19.402Z,953.75
2016-07-31T09:15:29.136Z,953.77
2016-07-31T09:16:18.696Z,953.75
2016-07-31T09:17:29.093Z,953.74
2016-07-31T09:18:25.938Z,953.76
2016-07-31T09:19:17.773Z,953.74
2016-07-31T09:20:33.320Z,953.76
2016-07-31T09:23:15.943Z,953.71
2016-07-31T09:24:23.457Z,953.72
2016-07-31T09:25:21.142Z,953.69
2016-07-31T09:27:23.236Z,953.58
2016-07-31T09:29:28.298Z,953.59
2016-07-31T09:30:32.526Z,953.59
2016-07-31T09:31:22.772Z,953.59
2016-07-31T09:32:14.978Z,953.55
2016-07-31T09:33:22.939Z,953.54
2016-07-31T09:34:18.498Z,953.53
2016-07-31T09:35:23.498Z,953.51
2016-07-31T09:36:19.252Z,953.50
2016-07-31T09:38:20.622Z,953.43
2016-07-31T09:39:34.174Z,953.42
2016-07-31T09:40:28.987Z,953.45
2016-07-31T09:41:25.281Z,953.43
2016-07-31T09:43:29.934Z,953.41
2016-07-31T09:44:18.490Z,953.38
2016-07-31T09:45:27.021Z,953.42
2016-07-31T09:46:38.906Z,953.40
2016-07-31T09:47:27.354Z,953.41
2016-07-31T09:48:28.300Z,953.43
2016-07-31T09:49:21.321Z,953.35
2016-07-31T09:50:27.588Z,953.38
2016-07-31T09:51:33.212Z,953.37
2016-07-31T09:52:44.686Z,953.38
2016-07-31T09:53:31.889Z,953.38
2016-07-31T09:54:29.903Z,953.35
2016-07-31T09:55:35.136Z,953.37
2016-07-31T09:56:32.182Z,953.33
2016-07-31T09:57:34.910Z,953.36
2016-07-31T09:58:31.039Z,953.35
2016-07-31T09:59:20.770Z,953.28
2016-07-31T10:00:24.220Z,953.29
2016-07-31T10:01:20.114Z,953.27
2016-07-31T10:02:34.842Z,953.19
2016-07-31T10:03:18.863Z,953.21
2016-07-31T10:04:38.998Z,953.20
2016-07-31T10:05:18.763Z,953.21
2016-07-31T10:06:18.265Z,953.19
2016-07-31T10:07:19.227Z,953.19
2016-07-31T10:08:26.044Z,953.19
2016-07-31T10:09:19.511Z,953.14
2016-07-31T10:10:23.852Z,953.18
2016-07-31T10:11:11.120Z,953.14
2016-07-31T10:12:25.680Z,953.13
2016-07-31T10:13:34.265Z,953.15
2016-07-31T10:14:26.703Z,953.17
2016-07-31T10:15:27.828Z,953.15
2016-07-31T10:16:31.525Z,953.10
2016-07-31T10:17:40.996Z,953.15
2016-07-31T10:18:21.439Z,953.14
2016-07-31T10:19:17.914Z,953.11
2016-07-31T10:20:18.857Z,953.12
2016-07-31T10:21:23.023Z,953.10
2016-07-31T10:22:28.250Z,953.09
2016-07-31T10:23:19.904Z,953.10
2016-07-31T10:24:23.971Z,953.06
2016-07-31T10:25:34.423Z,953.05
2016-07-31T10:26:31.922Z,953.01
2016-07-31T10:27:18.586Z,953.04
2016-07-31T10:28:34.426Z,953.01
2016-07-31T10:30:38.022Z,953.00
2016-07-31T10:31:34.766Z,952.98
2016-07-31T10:32:18.036Z,952.94
2016-07-31T10:33:29.598Z,952.97
2016-07-31T10:34:23.971Z,952.96
2016-07-31T10:35:26.806Z,952.96
2016-07-31T10:36:22.559Z,952.94
2016-07-31T10:37:35.258Z,952.93
2016-07-31T10:38:33.809Z,952.88
2016-07-31T10:39:26.829Z,952.88
2016-07-31T10:40:30.068Z,952.86
2016-07-31T10:42:23.456Z,952.83
2016-07-31T10:43:34.058Z,952.84
2016-07-31T10:44:26.859Z,952.81
2016-07-31T10:46:32.712Z,952.77
2016-07-31T10:47:28.880Z,952.74
2016-07-31T10:48:24.744Z,952.79
2016-07-31T10:49:23.869Z,952.79
2016-07-31T10:50:40.398Z,952.75
2016-07-31T10:51:26.048Z,952.81
2016-07-31T10:52:23.879Z,952.77
2016-07-31T10:53:28.399Z,952.77
2016-07-31T10:54:28.133Z,952.77
2016-07-31T10:55:18.246Z,952.72
2016-07-31T10:56:38.576Z,952.70
2016-07-31T10:57:21.937Z,952.66
2016-07-31T10:58:36.939Z,952.68
2016-07-31T10:59:20.076Z,952.64
2016-07-31T11:03:33.644Z,952.69
2016-07-31T11:04:24.495Z,952.67
2016-07-31T11:05:17.996Z,952.64
2016-07-31T11:06:24.441Z,952.62
2016-07-31T11:07:26.251Z,952.62
2016-07-31T11:08:18.668Z,952.62
2016-07-31T11:09:25.542Z,952.63
2016-07-31T11:10:18.662Z,952.62
2016-07-31T11:11:28.457Z,952.63
2016-07-31T11:12:18.253Z,952.60
2016-07-31T11:13:34.222Z,952.64
2016-07-31T11:14:43.071Z,952.65
2016-07-31T11:16:20.701Z,952.59
2016-07-31T11:17:25.826Z,952.61
2016-07-31T11:18:22.294Z,952.65
2016-07-31T11:19:17.071Z,952.67
2016-07-31T11:20:17.751Z,952.59
2016-07-31T11:21:22.313Z,952.63
2016-07-31T11:22:19.130Z,952.62
2016-07-31T11:23:18.351Z,952.62
2016-07-31T11:24:23.909Z,952.64
2016-07-31T11:25:17.325Z,952.62
2016-07-31T11:26:11.957Z,952.68
2016-07-31T11:27:12.976Z,952.72
2016-07-31T11:28:26.801Z,952.71
2016-07-31T11:29:23.491Z,952.71
2016-07-31T11:30:37.652Z,952.72
2016-07-31T11:31:38.952Z,952.73
2016-07-31T11:33:26.649Z,952.72
2016-07-31T11:35:29.249Z,952.70
2016-07-31T11:36:21.231Z,952.72
2016-07-31T11:37:27.301Z,952.73
2016-07-31T11:38:18.590Z,952.74
2016-07-31T11:39:34.153Z,952.77
2016-07-31T11:40:28.786Z,952.77
2016-07-31T11:41:23.310Z,952.72
2016-07-31T11:42:29.048Z,952.74
2016-07-31T11:43:20.588Z,952.77
2016-07-31T11:44:44.448Z,952.73
2016-07-31T11:46:23.155Z,952.70
2016-07-31T11:47:28.891Z,952.72
2016-07-31T11:48:24.824Z,952.71
2016-07-31T11:49:20.126Z,952.68
2016-07-31T11:50:22.462Z,952.66
2016-07-31T11:51:20.169Z,952.69
2016-07-31T11:52:26.325Z,952.65
2016-07-31T11:53:23.470Z,952.67
2016-07-31T11:54:20.760Z,952.66
2016-07-31T11:55:23.961Z,952.66
2016-07-31T11:56:17.801Z,952.66
2016-07-31T11:57:27.212Z,952.63
2016-07-31T11:58:23.034Z,952.65
2016-07-31T11:59:22.603Z,952.62
2016-07-31T12:00:20.465Z,952.66
2016-07-31T12:01:35.201Z,952.63
2016-07-31T12:02:22.487Z,952.66
2016-07-31T12:03:26.169Z,952.71
2016-07-31T12:04:24.111Z,952.71
2016-07-31T12:05:23.682Z,952.70
2016-07-31T12:06:27.981Z,952.73
2016-07-31T12:07:16.786Z,952.74
2016-07-31T12:08:23.385Z,952.75
2016-07-31T12:09:17.806Z,952.79
2016-07-31T12:10:37.785Z,952.81
2016-07-31T12:11:43.722Z,952.77
2016-07-31T12:12:28.081Z,952.78
2016-07-31T12:13:19.357Z,952.76
2016-07-31T12:15:25.878Z,952.75
2016-07-31T12:16:31.257Z,952.76
2016-07-31T12:17:18.072Z,952.84
2016-07-31T12:18:26.290Z,952.81
2016-07-31T12:19:23.277Z,952.76
2016-07-31T12:20:25.690Z,952.76
2016-07-31T12:21:24.282Z,952.81
2016-07-31T12:22:18.439Z,952.75
2016-07-31T12:23:19.460Z,952.80
2016-07-31T12:24:27.308Z,952.78
2016-07-31T12:25:24.989Z,952.76
2016-07-31T12:26:29.276Z,952.77
2016-07-31T12:27:22.289Z,952.81
2016-07-31T12:28:23.262Z,952.80
2016-07-31T12:30:20.389Z,952.76
2016-07-31T12:31:24.779Z,952.76
2016-07-31T12:32:26.924Z,952.76
2016-07-31T12:33:26.984Z,952.76
2016-07-31T12:34:24.724Z,952.77
2016-07-31T12:35:24.860Z,952.82
2016-07-31T12:36:22.595Z,952.84
2016-07-31T12:37:19.084Z,952.83
2016-07-31T12:38:29.058Z,952.85
2016-07-31T12:39:31.440Z,952.81
2016-07-31T12:40:18.990Z,952.84
2016-07-31T12:41:21.027Z,952.85
2016-07-31T12:42:17.955Z,952.85
2016-07-31T12:43:20.444Z,952.87
2016-07-31T12:44:18.509Z,952.90
2016-07-31T12:45:27.125Z,952.86
2016-07-31T12:46:18.610Z,952.91
2016-07-31T12:47:33.844Z,952.91
2016-07-31T12:48:33.920Z,952.92
2016-07-31T12:49:30.810Z,952.93
2016-07-31T12:50:33.785Z,952.94
2016-07-31T12:51:29.677Z,952.92
2016-07-31T12:52:30.098Z,952.95
2016-07-31T12:53:39.481Z,952.90
2016-07-31T12:54:31.536Z,952.97
2016-07-31T12:55:26.869Z,952.95
2016-07-31T12:56:27.903Z,953.01
2016-07-31T12:57:28.469Z,953.02
2016-07-31T12:58:29.090Z,953.09
2016-07-31T13:00:19.701Z,953.09
2016-07-31T13:01:18.637Z,953.08
2016-07-31T13:02:37.480Z,953.17
2016-07-31T13:03:23.918Z,953.19
2016-07-31T13:04:24.844Z,953.17
2016-07-31T13:05:32.564Z,953.20
2016-07-31T13:06:28.857Z,953.22
2016-07-31T13:07:19.011Z,953.24
2016-07-31T13:08:23.988Z,953.29
2016-07-31T13:09:24.436Z,953.32
2016-07-31T13:10:18.411Z,953.33
2016-07-31T13:11:27.877Z,953.36
2016-07-31T13:12:27.766Z,953.35
2016-07-31T13:13:19.133Z,953.36
2016-07-31T13:14:22.863Z,953.36
2016-07-31T13:15:36.151Z,953.41
2016-07-31T13:16:26.259Z,953.37
2016-07-31T13:17:24.976Z,953.42
2016-07-31T13:18:18.057Z,953.35
2016-07-31T13:19:29.533Z,953.35
2016-07-31T13:20:18.451Z,953.36
2016-07-31T13:21:26.155Z,953.40
2016-07-31T13:22:19.404Z,953.32